createdAt,value
2023-05-18T00:01:42.158Z,101531.28
2023-05-18T00:04:44.883Z,101531.63
2023-05-18T00:07:47.834Z,101532.34
2023-05-18T00:10:50.231Z,101530.09
2023-05-18T00:13:52.426Z,101532.16
2023-05-18T00:16:54.917Z,101530.25
2023-05-18T00:19:58.782Z,101526.75
2023-05-18T00:23:02.555Z,101531.97
2023-05-18T00:26:07.654Z,101535.94
2023-05-18T00:29:09.997Z,101538.88
2023-05-18T00:32:12.226Z,101536.41
2023-05-18T00:35:14.423Z,101528.28
2023-05-18T00:38:20.640Z,101533.50
2023-05-18T00:41:22.985Z,101528.53
2023-05-18T00:44:25.314Z,101533.94
2023-05-18T00:47:27.829Z,101532.75
2023-05-18T00:50:30.105Z,101534.00
2023-05-18T00:53:35.426Z,101536.94
2023-05-18T00:56:42.090Z,101538.22
2023-05-18T00:59:44.577Z,101529.28
2023-05-18T01:02:46.986Z,101536.78
2023-05-18T01:05:50.360Z,101534.69
2023-05-18T01:08:55.438Z,101540.31
2023-05-18T01:11:59.976Z,101541.19
2023-05-18T01:15:04.940Z,101550.34
2023-05-18T01:18:10.708Z,101542.47
2023-05-18T01:21:19.671Z,101550.97
2023-05-18T01:24:41.717Z,101546.63
2023-05-18T01:27:46.630Z,101558.25
2023-05-18T01:30:50.890Z,101567.81
2023-05-18T01:33:53.197Z,101562.00
2023-05-18T01:36:56.055Z,101559.50
2023-05-18T01:39:58.915Z,101559.50
2023-05-18T01:43:03.988Z,101562.19
2023-05-18T01:46:10.633Z,101569.25
2023-05-18T01:49:28.230Z,101567.38
2023-05-18T01:52:33.884Z,101572.59
2023-05-18T01:55:36.226Z,101572.56
2023-05-18T01:58:38.615Z,101578.38
2023-05-18T02:01:41.309Z,101573.56
2023-05-18T02:04:44.198Z,101576.06
2023-05-18T02:07:47.722Z,101583.31
2023-05-18T02:10:50.787Z,101578.56
2023-05-18T02:13:53.218Z,101593.09
2023-05-18T02:16:57.598Z,101590.19
2023-05-18T02:19:59.961Z,101589.34
2023-05-18T02:23:02.311Z,101578.13
2023-05-18T02:26:04.592Z,101582.28
2023-05-18T02:29:07.069Z,101585.16
2023-05-18T02:32:09.890Z,101588.06
2023-05-18T02:35:12.974Z,101585.38
2023-05-18T02:38:15.314Z,101583.50
2023-05-18T02:41:17.741Z,101585.75
2023-05-18T02:44:19.996Z,101587.19
2023-05-18T02:47:24.120Z,101583.88
2023-05-18T02:50:26.468Z,101590.34
2023-05-18T02:53:28.806Z,101595.47
2023-05-18T02:56:38.688Z,101592.59
2023-05-18T02:59:52.584Z,101596.09
2023-05-18T03:02:57.977Z,101604.28
2023-05-18T03:06:02.687Z,101602.63
2023-05-18T03:09:05.567Z,101608.03
2023-05-18T03:12:13.831Z,101613.47
2023-05-18T03:15:19.698Z,101617.25
2023-05-18T03:18:22.119Z,101613.28
2023-05-18T03:21:24.435Z,101627.22
2023-05-18T03:24:26.773Z,101628.88
2023-05-18T03:27:29.339Z,101633.25
2023-05-18T03:30:35.244Z,101639.66
2023-05-18T03:33:37.965Z,101639.31
2023-05-18T03:36:40.384Z,101640.53
2023-05-18T03:39:42.855Z,101642.66
2023-05-18T03:42:45.683Z,101636.00
2023-05-18T03:45:48.577Z,101636.81
2023-05-18T03:48:51.526Z,101641.44
2023-05-18T03:51:57.513Z,101641.22
2023-05-18T03:54:59.923Z,101639.53
2023-05-18T03:58:03.529Z,101637.69
2023-05-18T04:01:07.074Z,101646.19
2023-05-18T04:04:09.839Z,101646.59
2023-05-18T04:07:14.260Z,101649.47
2023-05-18T04:10:19.740Z,101655.72
2023-05-18T04:13:23.202Z,101664.59
2023-05-18T04:16:25.706Z,101669.78
2023-05-18T04:19:28.441Z,101676.78
2023-05-18T04:22:32.564Z,101677.75
2023-05-18T04:25:35.472Z,101674.72
2023-05-18T04:28:38.489Z,101688.81
2023-05-18T04:31:42.851Z,101691.47
2023-05-18T04:34:49.653Z,101701.56
2023-05-18T04:37:52.490Z,101701.72
2023-05-18T04:40:57.245Z,101696.16
2023-05-18T04:44:01.078Z,101697.06
2023-05-18T04:47:04.427Z,101706.69
2023-05-18T04:50:08.717Z,101711.53
2023-05-18T04:53:12.417Z,101704.31
2023-05-18T04:56:15.171Z,101712.59
2023-05-18T04:59:17.533Z,101709.72
2023-05-18T05:02:20.141Z,101717.16
2023-05-18T05:05:23.439Z,101708.13
2023-05-18T05:08:25.909Z,101721.22
2023-05-18T05:11:28.465Z,101717.03
2023-05-18T05:14:30.957Z,101714.03
2023-05-18T05:17:33.773Z,101719.94
2023-05-18T05:20:36.371Z,101721.78
2023-05-18T05:23:38.823Z,101726.88
2023-05-18T05:26:41.158Z,101731.78
2023-05-18T05:29:43.567Z,101723.34
2023-05-18T05:32:45.990Z,101727.22
2023-05-18T05:35:48.344Z,101727.41
2023-05-18T05:38:50.903Z,101726.66
2023-05-18T05:41:53.468Z,101724.66
2023-05-18T05:44:55.920Z,101738.56
2023-05-18T05:47:59.452Z,101741.03
2023-05-18T05:51:02.115Z,101735.28
2023-05-18T05:54:06.136Z,101735.25
2023-05-18T05:57:09.513Z,101729.09
2023-05-18T06:00:13.108Z,101732.00
2023-05-18T06:03:29.534Z,101736.31
2023-05-18T06:06:35.090Z,101729.66
2023-05-18T06:09:37.396Z,101735.22
2023-05-18T06:12:39.856Z,101736.31
2023-05-18T06:15:42.478Z,101737.56
2023-05-18T06:18:45.452Z,101737.19
2023-05-18T06:21:48.688Z,101743.84
2023-05-18T06:24:51.540Z,101742.63
2023-05-18T06:28:14.133Z,101746.75
2023-05-18T06:31:21.207Z,101749.22
2023-05-18T06:34:31.573Z,101758.59
2023-05-18T06:37:34.108Z,101746.16
2023-05-18T06:40:36.728Z,101748.66
2023-05-18T06:43:39.171Z,101761.38
2023-05-18T06:47:06.007Z,101759.25
2023-05-18T06:50:08.832Z,101757.78
2023-05-18T06:53:11.912Z,101757.88
2023-05-18T06:56:15.146Z,101762.56
2023-05-18T06:59:19.563Z,101761.97
2023-05-18T07:02:22.001Z,101758.41
2023-05-18T07:05:26.545Z,101765.78
2023-05-18T07:08:28.845Z,101760.75
2023-05-18T07:11:31.088Z,101763.38
2023-05-18T07:14:33.375Z,101760.59
2023-05-18T07:17:35.735Z,101753.78
2023-05-18T07:20:38.049Z,101752.66
2023-05-18T07:23:40.372Z,101767.81
2023-05-18T07:26:43.599Z,101762.59
2023-05-18T07:29:46.655Z,101763.97
2023-05-18T07:32:49.291Z,101772.50
2023-05-18T07:35:51.790Z,101771.94
2023-05-18T07:38:55.168Z,101774.69
2023-05-18T07:41:57.490Z,101772.22
2023-05-18T07:44:59.905Z,101774.66
2023-05-18T07:48:02.199Z,101778.50
2023-05-18T07:51:04.742Z,101781.25
2023-05-18T07:54:07.545Z,101783.72
2023-05-18T07:57:09.890Z,101785.13
2023-05-18T08:00:12.395Z,101792.25
2023-05-18T08:03:17.875Z,101788.44
2023-05-18T08:06:20.371Z,101786.22
2023-05-18T08:09:22.855Z,101790.88
2023-05-18T08:12:25.807Z,101791.19
2023-05-18T08:15:28.090Z,101786.22
2023-05-18T08:18:30.419Z,101782.91
2023-05-18T08:21:33.287Z,101785.94
2023-05-18T08:24:35.588Z,101795.84
2023-05-18T08:27:38.004Z,101783.47
2023-05-18T08:30:40.410Z,101782.91
2023-05-18T08:33:42.755Z,101788.97
2023-05-18T08:36:46.019Z,101774.66
2023-05-18T08:39:48.299Z,101773.31
2023-05-18T08:42:52.590Z,101785.13
2023-05-18T08:46:24.133Z,101781.28
2023-05-18T08:49:26.313Z,101787.63
2023-05-18T08:52:28.590Z,101789.50
2023-05-18T08:55:34.873Z,101785.66
2023-05-18T08:58:45.678Z,101777.41
2023-05-18T09:01:48.153Z,101780.63
2023-05-18T09:04:50.612Z,101787.72
2023-05-18T09:07:52.989Z,101784.91
2023-05-18T09:10:55.328Z,101786.97
2023-05-18T09:13:57.721Z,101804.97
2023-05-18T09:16:59.959Z,101789.72
2023-05-18T09:20:05.178Z,101783.91
2023-05-18T09:23:07.672Z,101789.72
2023-05-18T09:26:10.339Z,101789.19
2023-05-18T09:29:17.190Z,101795.03
2023-05-18T09:32:19.463Z,101790.88
2023-05-18T09:35:23.308Z,101784.91
2023-05-18T09:38:25.845Z,101787.94
2023-05-18T09:41:28.413Z,101795.03
2023-05-18T09:44:36.883Z,101798.22
2023-05-18T09:47:39.115Z,101794.03
2023-05-18T09:50:41.457Z,101798.50
2023-05-18T09:53:44.370Z,101792.44
2023-05-18T09:56:55.387Z,101785.91
2023-05-18T10:00:12.873Z,101774.25
2023-05-18T10:03:22.224Z,101778.91
2023-05-18T10:06:27.610Z,101785.28
2023-05-18T10:09:29.998Z,101784.09
2023-05-18T10:12:32.444Z,101777.78
2023-05-18T10:15:34.664Z,101781.47
2023-05-18T10:18:39.188Z,101774.19
2023-05-18T10:21:41.872Z,101774.63
2023-05-18T10:24:45.644Z,101765.34
2023-05-18T10:27:51.018Z,101771.25
2023-05-18T10:30:54.637Z,101767.19
2023-05-18T10:33:56.937Z,101769.09
2023-05-18T10:37:00.054Z,101771.00
2023-05-18T10:40:02.660Z,101769.69
2023-05-18T10:43:04.989Z,101769.94
2023-05-18T10:46:10.118Z,101764.06
2023-05-18T10:49:15.107Z,101767.41
2023-05-18T10:52:17.841Z,101767.41
2023-05-18T10:55:20.124Z,101771.22
2023-05-18T10:58:23.100Z,101765.72
2023-05-18T11:01:25.408Z,101764.91
2023-05-18T11:04:29.923Z,101758.94
2023-05-18T11:07:34.175Z,101773.97
2023-05-18T11:10:39.853Z,101775.72
2023-05-18T11:13:46.427Z,101768.16
2023-05-18T11:16:48.865Z,101765.53
2023-05-18T11:20:09.647Z,101762.44
2023-05-18T11:23:14.763Z,101772.03
2023-05-18T11:26:17.031Z,101757.03
2023-05-18T11:29:20.045Z,101765.63
2023-05-18T11:32:30.433Z,101772.69
2023-05-18T11:35:34.856Z,101762.75
2023-05-18T11:38:50.465Z,101753.13
2023-05-18T11:42:11.456Z,101754.59
2023-05-18T11:45:13.906Z,101752.81
2023-05-18T11:48:16.236Z,101758.53
2023-05-18T11:51:19.344Z,101756.38
2023-05-18T11:54:24.046Z,101759.84
2023-05-18T11:57:32.078Z,101756.00
2023-05-18T12:00:34.304Z,101767.22
2023-05-18T12:03:36.679Z,101761.59
2023-05-18T12:06:39.215Z,101766.88
2023-05-18T12:09:45.090Z,101759.06
2023-05-18T12:12:50.237Z,101757.25
2023-05-18T12:15:53.226Z,101759.84
2023-05-18T12:18:55.623Z,101756.59
2023-05-18T12:21:59.056Z,101756.19
2023-05-18T12:25:01.840Z,101761.03
2023-05-18T12:28:05.149Z,101750.16
2023-05-18T12:31:08.671Z,101755.19
2023-05-18T12:34:11.661Z,101742.72
2023-05-18T12:37:14.086Z,101753.91
2023-05-18T12:40:17.071Z,101755.59
2023-05-18T12:43:19.432Z,101744.28
2023-05-18T12:46:23.175Z,101748.63
2023-05-18T12:49:25.680Z,101751.28
2023-05-18T12:52:27.873Z,101747.34
2023-05-18T12:55:31.090Z,101754.34
2023-05-18T12:58:33.588Z,101748.19
2023-05-18T13:01:41.995Z,101745.31
2023-05-18T13:04:44.339Z,101744.69
2023-05-18T13:07:46.723Z,101737.25
2023-05-18T13:10:58.078Z,101741.47
2023-05-18T13:14:09.052Z,101743.81
2023-05-18T13:17:11.876Z,101742.06
2023-05-18T13:20:15.617Z,101737.63
2023-05-18T13:23:19.260Z,101749.72
2023-05-18T13:26:22.319Z,101746.13
2023-05-18T13:29:24.567Z,101747.25
2023-05-18T13:32:27.087Z,101744.22
2023-05-18T13:35:29.671Z,101740.75
2023-05-18T13:38:35.562Z,101744.97
2023-05-18T13:41:37.836Z,101746.47
2023-05-18T13:44:40.254Z,101750.69
2023-05-18T13:47:42.771Z,101751.44
2023-05-18T13:50:45.172Z,101744.59
2023-05-18T13:53:47.423Z,101746.22
2023-05-18T13:56:49.971Z,101745.03
2023-05-18T13:59:52.969Z,101747.50
2023-05-18T14:02:56.741Z,101749.13
2023-05-18T14:05:59.237Z,101737.69
2023-05-18T14:09:01.553Z,101744.91
2023-05-18T14:12:05.855Z,101740.44
2023-05-18T14:15:08.542Z,101739.38
2023-05-18T14:18:10.881Z,101742.19
2023-05-18T14:21:13.119Z,101738.78
2023-05-18T14:24:15.480Z,101739.09
2023-05-18T14:27:17.893Z,101735.13
2023-05-18T14:30:20.270Z,101733.66
2023-05-18T14:33:22.624Z,101731.94
2023-05-18T14:36:25.195Z,101729.38
2023-05-18T14:39:27.733Z,101731.13
2023-05-18T14:42:29.996Z,101719.53
2023-05-18T14:45:32.383Z,101731.00
2023-05-18T14:48:35.076Z,101738.78
2023-05-18T14:51:37.388Z,101732.34
2023-05-18T14:54:40.467Z,101733.97
2023-05-18T14:57:42.919Z,101746.56
2023-05-18T15:00:45.177Z,101727.22
2023-05-18T15:03:47.601Z,101731.84
2023-05-18T15:06:49.980Z,101723.09
2023-05-18T15:09:52.266Z,101728.72
2023-05-18T15:12:54.459Z,101731.19
2023-05-18T15:15:56.927Z,101728.72
2023-05-18T15:18:59.342Z,101724.34
2023-05-18T15:22:01.651Z,101732.78
2023-05-18T15:25:06.011Z,101724.91
2023-05-18T15:28:09.163Z,101728.44
2023-05-18T15:31:11.415Z,101728.97
2023-05-18T15:34:13.595Z,101729.41
2023-05-18T15:37:15.772Z,101725.13
2023-05-18T15:40:18.335Z,101719.69
2023-05-18T15:43:21.569Z,101721.97
2023-05-18T15:46:24.041Z,101729.47
2023-05-18T15:49:27.029Z,101723.03
2023-05-18T15:52:29.949Z,101736.53
2023-05-18T15:55:32.593Z,101746.81
2023-05-18T15:58:35.278Z,101748.66
2023-05-18T16:01:37.639Z,101741.44
2023-05-18T16:04:40.008Z,101746.13
2023-05-18T16:07:42.951Z,101750.56
2023-05-18T16:10:45.892Z,101752.78
2023-05-18T16:13:56.730Z,101750.38
2023-05-18T16:16:59.381Z,101757.84
2023-05-18T16:20:03.977Z,101758.84
2023-05-18T16:23:06.437Z,101763.25
2023-05-18T16:26:09.242Z,101763.81
2023-05-18T16:29:11.799Z,101771.84
2023-05-18T16:32:14.082Z,101765.94
2023-05-18T16:35:16.996Z,101765.44
2023-05-18T16:38:19.356Z,101764.41
2023-05-18T16:41:22.171Z,101761.16
2023-05-18T16:44:24.467Z,101759.25
2023-05-18T16:47:27.768Z,101766.41
2023-05-18T16:50:32.302Z,101772.75
2023-05-18T16:53:36.618Z,101770.81
2023-05-18T16:56:40.312Z,101771.94
2023-05-18T16:59:43.130Z,101773.56
2023-05-18T17:02:45.941Z,101778.81
2023-05-18T17:05:48.528Z,101775.50
2023-05-18T17:08:57.545Z,101773.31
2023-05-18T17:12:00.161Z,101781.81
2023-05-18T17:15:02.968Z,101782.38
2023-05-18T17:18:05.456Z,101777.41
2023-05-18T17:21:07.946Z,101779.63
2023-05-18T17:24:10.576Z,101778.22
2023-05-18T17:27:12.911Z,101783.19
2023-05-18T17:30:15.372Z,101778.13
2023-05-18T17:33:17.680Z,101783.88
2023-05-18T17:36:19.947Z,101788.50
2023-05-18T17:39:22.268Z,101788.75
2023-05-18T17:42:24.573Z,101787.63
2023-05-18T17:45:27.155Z,101794.44
2023-05-18T17:48:29.751Z,101797.31
2023-05-18T17:51:32.061Z,101797.59
2023-05-18T17:54:34.371Z,101800.28
2023-05-18T17:57:36.686Z,101805.88
2023-05-18T18:00:39.025Z,101802.94
2023-05-18T18:03:41.771Z,101801.03
2023-05-18T18:06:45.632Z,101805.09
2023-05-18T18:09:47.949Z,101813.66
2023-05-18T18:12:50.201Z,101818.44
2023-05-18T18:15:52.587Z,101817.50
2023-05-18T18:18:57.766Z,101825.91
2023-05-18T18:22:00.086Z,101821.34
2023-05-18T18:25:02.503Z,101817.72
2023-05-18T18:28:04.844Z,101820.34
2023-05-18T18:31:07.130Z,101834.19
2023-05-18T18:34:11.646Z,101828.03
2023-05-18T18:37:13.946Z,101834.84
2023-05-18T18:40:16.568Z,101830.09
2023-05-18T18:43:18.987Z,101839.63
2023-05-18T18:46:21.596Z,101843.56
2023-05-18T18:49:24.018Z,101843.72
2023-05-18T18:52:26.480Z,101850.53
2023-05-18T18:55:28.854Z,101853.78
2023-05-18T18:58:31.307Z,101856.28
2023-05-18T19:01:33.627Z,101850.44
2023-05-18T19:04:36.220Z,101858.09
2023-05-18T19:07:38.528Z,101861.59
2023-05-18T19:10:40.875Z,101855.22
2023-05-18T19:13:43.245Z,101859.19
2023-05-18T19:18:11.754Z,101860.03
2023-05-18T19:21:14.201Z,101862.91
2023-05-18T19:24:16.642Z,101869.75
2023-05-18T19:27:19.060Z,101864.28
2023-05-18T19:30:22.536Z,101862.72
2023-05-18T19:33:25.378Z,101870.06
2023-05-18T19:36:28.299Z,101869.91
2023-05-18T19:39:30.749Z,101864.47
2023-05-18T19:42:33.327Z,101878.63
2023-05-18T19:45:36.229Z,101872.88
2023-05-18T19:48:38.915Z,101877.63
2023-05-18T19:51:41.268Z,101877.63
2023-05-18T19:54:43.758Z,101884.38
2023-05-18T19:57:46.318Z,101882.16
2023-05-18T20:00:48.893Z,101882.94
2023-05-18T20:03:52.123Z,101884.22
2023-05-18T20:06:58.009Z,101888.13
2023-05-18T20:10:00.616Z,101881.41
2023-05-18T20:13:03.078Z,101892.66
2023-05-18T20:16:06.044Z,101895.25
2023-05-18T20:19:08.647Z,101898.59
2023-05-18T20:22:11.890Z,101910.44
2023-05-18T20:25:14.283Z,101908.34
2023-05-18T20:28:16.815Z,101907.50
2023-05-18T20:31:19.998Z,101915.22
2023-05-18T20:34:22.459Z,101912.38
2023-05-18T20:37:26.393Z,101919.50
2023-05-18T20:40:31.034Z,101917.47
2023-05-18T20:43:33.701Z,101899.38
2023-05-18T20:46:37.830Z,101921.84
2023-05-18T20:49:40.419Z,101914.38
2023-05-18T20:52:42.831Z,101925.91
2023-05-18T20:55:48.180Z,101923.03
2023-05-18T20:58:50.757Z,101915.13
2023-05-18T21:01:53.259Z,101924.47
2023-05-18T21:04:57.970Z,101929.53
2023-05-18T21:08:00.431Z,101917.41
2023-05-18T21:11:03.096Z,101923.59
2023-05-18T21:14:05.766Z,101932.59
2023-05-18T21:17:08.268Z,101927.63
2023-05-18T21:20:11.164Z,101929.75
2023-05-18T21:23:13.452Z,101943.00
2023-05-18T21:26:16.243Z,101943.09
2023-05-18T21:29:18.870Z,101933.34
2023-05-18T21:32:21.512Z,101928.41
2023-05-18T21:35:24.031Z,101933.84
2023-05-18T21:38:26.403Z,101939.75
2023-05-18T21:41:28.850Z,101941.25
2023-05-18T21:44:31.386Z,101929.88
2023-05-18T21:47:33.967Z,101937.56
2023-05-18T21:50:36.478Z,101940.63
2023-05-18T21:53:38.999Z,101938.81
2023-05-18T21:56:41.364Z,101936.38
2023-05-18T21:59:44.358Z,101934.75
2023-05-18T22:02:46.814Z,101936.88
2023-05-18T22:05:49.170Z,101941.63
2023-05-18T22:08:51.949Z,101946.91
2023-05-18T22:11:54.420Z,101930.22
2023-05-18T22:14:56.881Z,101941.09
2023-05-18T22:18:02.084Z,101924.25
2023-05-18T22:21:04.637Z,101935.16
2023-05-18T22:24:07.233Z,101931.22
2023-05-18T22:27:09.637Z,101927.75
2023-05-18T22:30:13.714Z,101937.66
2023-05-18T22:33:17.032Z,101933.03
2023-05-18T22:36:21.859Z,101931.41
2023-05-18T22:39:24.289Z,101939.31
2023-05-18T22:42:26.952Z,101930.78
2023-05-18T22:45:29.365Z,101937.03
2023-05-18T22:48:34.711Z,101924.72
2023-05-18T22:51:37.092Z,101937.50
2023-05-18T22:54:39.415Z,101925.22
2023-05-18T22:57:42.187Z,101925.31
2023-05-18T23:00:44.568Z,101930.53
2023-05-18T23:03:46.958Z,101924.72
2023-05-18T23:06:50.931Z,101927.81
2023-05-18T23:09:53.906Z,101928.28
2023-05-18T23:12:58.566Z,101917.84
2023-05-18T23:16:01.284Z,101926.97
2023-05-18T23:19:04.051Z,101919.88
2023-05-18T23:22:06.561Z,101922.84
2023-05-18T23:25:10.056Z,101923.63
2023-05-18T23:28:12.506Z,101924.88
2023-05-18T23:31:14.994Z,101921.41
2023-05-18T23:34:17.710Z,101909.69
2023-05-18T23:37:21.074Z,101921.53
2023-05-18T23:40:23.980Z,101907.59
2023-05-18T23:43:26.622Z,101919.88
2023-05-18T23:46:30.152Z,101895.56
2023-05-18T23:49:32.838Z,101919.59
2023-05-18T23:52:36.096Z,101909.19
2023-05-18T23:55:41.643Z,101919.44
2023-05-18T23:58:47.324Z,101921.25
